sensor_id;sensor_type;location;lat;lon;timestamp;pressure;altitude;pressure_sealevel;temperature;humidity
80798;BME280;70202;52.238;10.680;2023-06-04T00:00:39;100726.72;;;12.20;47.21
80798;BME280;70202;52.238;10.680;2023-06-04T00:01:39;100725.94;;;12.17;47.21
80798;BME280;70202;52.238;10.680;2023-06-04T00:02:40;100725.06;;;12.16;47.42
80798;BME280;70202;52.238;10.680;2023-06-04T00:03:40;100727.78;;;12.16;47.46
80798;BME280;70202;52.238;10.680;2023-06-04T00:04:40;100695.59;;;12.01;47.25
80798;BME280;70202;52.238;10.680;2023-06-04T00:05:41;100705.56;;;12.02;47.12
80798;BME280;70202;52.238;10.680;2023-06-04T00:06:41;100727.03;;;12.13;47.28
80798;BME280;70202;52.238;10.680;2023-06-04T00:07:41;100713.44;;;12.11;47.40
80798;BME280;70202;52.238;10.680;2023-06-04T00:08:42;100719.81;;;12.10;47.20
80798;BME280;70202;52.238;10.680;2023-06-04T00:09:42;100714.44;;;12.09;47.29
80798;BME280;70202;52.238;10.680;2023-06-04T00:10:44;100721.75;;;12.08;47.38
80798;BME280;70202;52.238;10.680;2023-06-04T00:11:44;100722.72;;;12.06;47.33
80798;BME280;70202;52.238;10.680;2023-06-04T00:12:45;100721.84;;;12.05;47.71
80798;BME280;70202;52.238;10.680;2023-06-04T00:13:46;100724.69;;;12.02;47.56
80798;BME280;70202;52.238;10.680;2023-06-04T00:14:46;100704.22;;;11.90;47.37
80798;BME280;70202;52.238;10.680;2023-06-04T00:15:46;100728.44;;;11.99;47.54
80798;BME280;70202;52.238;10.680;2023-06-04T00:16:47;100716.75;;;11.96;47.64
80798;BME280;70202;52.238;10.680;2023-06-04T00:17:47;100726.69;;;11.97;47.81
80798;BME280;70202;52.238;10.680;2023-06-04T00:18:48;100721.25;;;11.97;47.69
80798;BME280;70202;52.238;10.680;2023-06-04T00:19:48;100708.91;;;11.87;47.88
80798;BME280;70202;52.238;10.680;2023-06-04T00:20:48;100702.66;;;11.83;47.90
80798;BME280;70202;52.238;10.680;2023-06-04T00:21:49;100716.91;;;11.91;48.04
80798;BME280;70202;52.238;10.680;2023-06-04T00:22:49;100722.44;;;11.90;47.94
80798;BME280;70202;52.238;10.680;2023-06-04T00:23:50;100723.38;;;11.89;48.43
80798;BME280;70202;52.238;10.680;2023-06-04T00:24:50;100707.38;;;11.78;48.49
80798;BME280;70202;52.238;10.680;2023-06-04T00:25:51;100713.72;;;11.79;48.04
80798;BME280;70202;52.238;10.680;2023-06-04T00:26:51;100719.03;;;11.83;48.34
80798;BME280;70202;52.238;10.680;2023-06-04T00:27:51;100724.53;;;11.82;48.63
80798;BME280;70202;52.238;10.680;2023-06-04T00:28:56;100726.41;;;11.80;48.77
80798;BME280;70202;52.238;10.680;2023-06-04T00:29:57;100703.25;;;11.66;48.41
80798;BME280;70202;52.238;10.680;2023-06-04T00:30:57;100722.25;;;11.69;48.99
80798;BME280;70202;52.238;10.680;2023-06-04T00:31:57;100722.09;;;11.74;48.48
80798;BME280;70202;52.238;10.680;2023-06-04T00:32:58;100704.38;;;11.61;48.63
80798;BME280;70202;52.238;10.680;2023-06-04T00:33:59;100724.91;;;11.71;48.91
80798;BME280;70202;52.238;10.680;2023-06-04T00:34:59;100721.38;;;11.69;48.55
80798;BME280;70202;52.238;10.680;2023-06-04T00:36:01;100724.13;;;11.67;48.47
80798;BME280;70202;52.238;10.680;2023-06-04T00:37:02;100725.09;;;11.66;48.90
80798;BME280;70202;52.238;10.680;2023-06-04T00:38:02;100714.53;;;11.57;48.71
80798;BME280;70202;52.238;10.680;2023-06-04T00:39:03;100730.66;;;11.63;48.63
80798;BME280;70202;52.238;10.680;2023-06-04T00:40:03;100734.25;;;11.64;48.96
80798;BME280;70202;52.238;10.680;2023-06-04T00:41:05;100719.13;;;11.55;48.72
80798;BME280;70202;52.238;10.680;2023-06-04T00:42:06;100729.91;;;11.60;48.93
80798;BME280;70202;52.238;10.680;2023-06-04T00:43:06;100732.66;;;11.58;48.72
80798;BME280;70202;52.238;10.680;2023-06-04T00:44:07;100722.81;;;11.54;48.38
80798;BME280;70202;52.238;10.680;2023-06-04T00:45:08;100718.53;;;11.47;49.05
80798;BME280;70202;52.238;10.680;2023-06-04T00:46:10;100726.72;;;11.47;49.08
80798;BME280;70202;52.238;10.680;2023-06-04T00:47:15;100729.28;;;11.51;48.35
80798;BME280;70202;52.238;10.680;2023-06-04T00:48:16;100732.03;;;11.50;48.56
80798;BME280;70202;52.238;10.680;2023-06-04T00:49:16;100726.66;;;11.48;48.63
80798;BME280;70202;52.238;10.680;2023-06-04T00:50:16;100739.41;;;11.48;48.79
80798;BME280;70202;52.238;10.680;2023-06-04T00:51:17;100731.38;;;11.43;49.06
80798;BME280;70202;52.238;10.680;2023-06-04T00:52:18;100730.44;;;11.44;48.87
80798;BME280;70202;52.238;10.680;2023-06-04T00:53:18;100737.72;;;11.44;48.98
80798;BME280;70202;52.238;10.680;2023-06-04T00:54:20;100727.09;;;11.36;49.23
80798;BME280;70202;52.238;10.680;2023-06-04T00:55:20;100734.22;;;11.40;49.39
80798;BME280;70202;52.238;10.680;2023-06-04T00:56:21;100738.81;;;11.38;49.38
80798;BME280;70202;52.238;10.680;2023-06-04T00:57:22;100735.28;;;11.36;49.13
80798;BME280;70202;52.238;10.680;2023-06-04T00:58:22;100730.78;;;11.34;48.97
80798;BME280;70202;52.238;10.680;2023-06-04T00:59:24;100728.38;;;11.26;48.89
80798;BME280;70202;52.238;10.680;2023-06-04T01:00:25;100732.81;;;11.29;49.43
80798;BME280;70202;52.238;10.680;2023-06-04T01:01:40;100739.28;;;11.26;49.25
80798;BME280;70202;52.238;10.680;2023-06-04T01:02:44;100738.41;;;11.24;49.18
80798;BME280;70202;52.238;10.680;2023-06-04T01:03:49;100735.78;;;11.21;49.16
80798;BME280;70202;52.238;10.680;2023-06-04T01:06:13;100735.16;;;11.13;48.83
80798;BME280;70202;52.238;10.680;2023-06-04T01:07:21;100728.88;;;11.11;48.91
80798;BME280;70202;52.238;10.680;2023-06-04T01:08:23;100715.59;;;11.00;49.08
80798;BME280;70202;52.238;10.680;2023-06-04T01:09:26;100731.69;;;11.08;48.84
80798;BME280;70202;52.238;10.680;2023-06-04T01:10:26;100730.00;;;11.05;49.72
80798;BME280;70202;52.238;10.680;2023-06-04T01:11:37;100736.34;;;11.06;49.31
80798;BME280;70202;52.238;10.680;2023-06-04T01:12:42;100730.00;;;11.05;49.45
80798;BME280;70202;52.238;10.680;2023-06-04T01:13:42;100740.03;;;11.03;49.34
80798;BME280;70202;52.238;10.680;2023-06-04T01:14:43;100727.59;;;10.96;49.44
80798;BME280;70202;52.238;10.680;2023-06-04T01:15:43;100731.97;;;11.00;49.74
80798;BME280;70202;52.238;10.680;2023-06-04T01:16:50;100732.09;;;10.97;49.58
80798;BME280;70202;52.238;10.680;2023-06-04T01:18:02;100732.09;;;10.97;49.58
80798;BME280;70202;52.238;10.680;2023-06-04T01:19:04;100723.22;;;10.90;50.10
80798;BME280;70202;52.238;10.680;2023-06-04T01:20:29;100724.22;;;10.88;49.60
80798;BME280;70202;52.238;10.680;2023-06-04T01:21:34;100724.97;;;10.93;49.28
80798;BME280;70202;52.238;10.680;2023-06-04T01:24:52;100712.72;;;10.78;49.86
80798;BME280;70202;52.238;10.680;2023-06-04T01:25:55;100704.69;;;10.73;49.84
80798;BME280;70202;52.238;10.680;2023-06-04T01:26:57;100722.53;;;10.84;49.75
80798;BME280;70202;52.238;10.680;2023-06-04T01:27:58;100722.53;;;10.84;50.21
80798;BME280;70202;52.238;10.680;2023-06-04T01:29:00;100718.00;;;10.83;50.30
80798;BME280;70202;52.238;10.680;2023-06-04T01:30:02;100720.72;;;10.83;49.94
80798;BME280;70202;52.238;10.680;2023-06-04T01:31:05;100692.34;;;10.63;49.95
80798;BME280;70202;52.238;10.680;2023-06-04T01:32:08;100712.63;;;10.81;49.99
80798;BME280;70202;52.238;10.680;2023-06-04T01:33:16;100718.13;;;10.80;50.48
80798;BME280;70202;52.238;10.680;2023-06-04T01:34:17;100714.56;;;10.77;50.06
80798;BME280;70202;52.238;10.680;2023-06-04T01:35:17;100713.66;;;10.77;49.83
80798;BME280;70202;52.238;10.680;2023-06-04T01:36:18;100720.06;;;10.76;50.42
80798;BME280;70202;52.238;10.680;2023-06-04T01:37:18;100702.84;;;10.74;49.80
80798;BME280;70202;52.238;10.680;2023-06-04T01:38:19;100704.81;;;10.70;50.13
80798;BME280;70202;52.238;10.680;2023-06-04T01:39:19;100708.44;;;10.71;49.84
80798;BME280;70202;52.238;10.680;2023-06-04T01:40:20;100710.28;;;10.70;50.32
80798;BME280;70202;52.238;10.680;2023-06-04T01:41:20;100711.19;;;10.69;49.89
80798;BME280;70202;52.238;10.680;2023-06-04T01:42:21;100714.84;;;10.68;50.36
80798;BME280;70202;52.238;10.680;2023-06-04T01:43:22;100702.38;;;10.61;50.41
80798;BME280;70202;52.238;10.680;2023-06-04T01:44:22;100711.31;;;10.66;50.07
80798;BME280;70202;52.238;10.680;2023-06-04T01:45:23;100704.19;;;10.62;50.58
80798;BME280;70202;52.238;10.680;2023-06-04T01:46:23;100704.31;;;10.58;50.63
80798;BME280;70202;52.238;10.680;2023-06-04T01:47:23;100693.56;;;10.53;50.20
80798;BME280;70202;52.238;10.680;2023-06-04T01:48:24;100716.06;;;10.60;50.45
80798;BME280;70202;52.238;10.680;2023-06-04T01:49:24;100699.13;;;10.50;50.73
80798;BME280;70202;52.238;10.680;2023-06-04T01:50:25;100707.16;;;10.53;50.62
80798;BME280;70202;52.238;10.680;2023-06-04T01:51:25;100697.28;;;10.50;50.47
80798;BME280;70202;52.238;10.680;2023-06-04T01:52:26;100696.50;;;10.47;50.20
80798;BME280;70202;52.238;10.680;2023-06-04T01:53:26;100708.13;;;10.52;51.02
80798;BME280;70202;52.238;10.680;2023-06-04T01:54:27;100693.13;;;10.39;50.47
80798;BME280;70202;52.238;10.680;2023-06-04T01:55:30;100694.88;;;10.40;50.49
80798;BME280;70202;52.238;10.680;2023-06-04T01:56:33;100708.34;;;10.44;50.49
80798;BME280;70202;52.238;10.680;2023-06-04T01:57:34;100707.47;;;10.44;50.35
80798;BME280;70202;52.238;10.680;2023-06-04T01:58:41;100711.34;;;10.37;50.79
80798;BME280;70202;52.238;10.680;2023-06-04T01:59:42;100711.22;;;10.40;50.60
80798;BME280;70202;52.238;10.680;2023-06-04T02:00:42;100706.72;;;10.39;51.34
80798;BME280;70202;52.238;10.680;2023-06-04T02:01:43;100714.97;;;10.37;51.11
80798;BME280;70202;52.238;10.680;2023-06-04T02:02:44;100708.66;;;10.35;50.63
80798;BME280;70202;52.238;10.680;2023-06-04T02:03:45;100707.78;;;10.35;51.50
80798;BME280;70202;52.238;10.680;2023-06-04T02:04:46;100695.34;;;10.26;51.02
80798;BME280;70202;52.238;10.680;2023-06-04T02:05:47;100690.91;;;10.22;51.19
80798;BME280;70202;52.238;10.680;2023-06-04T02:06:47;100678.41;;;10.15;50.86
80798;BME280;70202;52.238;10.680;2023-06-04T02:07:48;100710.69;;;10.29;51.41
80798;BME280;70202;52.238;10.680;2023-06-04T02:08:49;100688.25;;;10.19;51.36
80798;BME280;70202;52.238;10.680;2023-06-04T02:09:49;100707.13;;;10.26;51.68
80798;BME280;70202;52.238;10.680;2023-06-04T02:10:50;100680.34;;;10.11;51.46
80798;BME280;70202;52.238;10.680;2023-06-04T02:11:50;100705.38;;;10.24;50.79
80798;BME280;70202;52.238;10.680;2023-06-04T02:12:55;100703.56;;;10.23;50.81
80798;BME280;70202;52.238;10.680;2023-06-04T02:13:55;100690.28;;;10.12;51.30
80798;BME280;70202;52.238;10.680;2023-06-04T02:14:56;100695.44;;;10.21;51.24
80798;BME280;70202;52.238;10.680;2023-06-04T02:15:56;100706.34;;;10.21;51.48
80798;BME280;70202;52.238;10.680;2023-06-04T02:16:56;100699.25;;;10.16;51.94
80798;BME280;70202;52.238;10.680;2023-06-04T02:18:12;100681.38;;;10.07;51.30
80798;BME280;70202;52.238;10.680;2023-06-04T02:19:16;100691.09;;;10.16;52.00
80798;BME280;70202;52.238;10.680;2023-06-04T02:20:18;100692.13;;;10.12;51.27
80798;BME280;70202;52.238;10.680;2023-06-04T02:21:18;100675.22;;;10.00;51.63
80798;BME280;70202;52.238;10.680;2023-06-04T02:22:19;100692.22;;;10.09;51.41
80798;BME280;70202;52.238;10.680;2023-06-04T02:23:20;100704.72;;;10.16;51.69
80798;BME280;70202;52.238;10.680;2023-06-04T02:24:21;100685.06;;;10.05;51.28
80798;BME280;70202;52.238;10.680;2023-06-04T02:25:22;100703.91;;;10.12;51.66
80798;BME280;70202;52.238;10.680;2023-06-04T02:26:23;100702.13;;;10.11;52.30
80798;BME280;70202;52.238;10.680;2023-06-04T02:27:25;100706.66;;;10.11;51.44
80798;BME280;70202;52.238;10.680;2023-06-04T02:28:26;100706.72;;;10.09;51.59
80798;BME280;70202;52.238;10.680;2023-06-04T02:29:26;100704.94;;;10.08;51.71
80798;BME280;70202;52.238;10.680;2023-06-04T02:30:26;100701.31;;;10.08;52.12
80798;BME280;70202;52.238;10.680;2023-06-04T02:31:27;100706.78;;;10.06;52.02
80798;BME280;70202;52.238;10.680;2023-06-04T02:32:27;100705.03;;;10.05;52.62
80798;BME280;70202;52.238;10.680;2023-06-04T02:33:29;100683.53;;;9.96;51.86
80798;BME280;70202;52.238;10.680;2023-06-04T02:34:29;100702.38;;;10.02;51.85
80798;BME280;70202;52.238;10.680;2023-06-04T02:35:30;100692.63;;;9.95;52.63
80798;BME280;70202;52.238;10.680;2023-06-04T02:36:31;100704.28;;;10.00;52.56
80798;BME280;70202;52.238;10.680;2023-06-04T02:37:31;100697.06;;;9.99;51.70
80798;BME280;70202;52.238;10.680;2023-06-04T02:38:31;100700.69;;;9.98;52.04
80798;BME280;70202;52.238;10.680;2023-06-04T02:39:32;100696.19;;;9.97;52.51
80798;BME280;70202;52.238;10.680;2023-06-04T02:40:32;100698.09;;;9.95;52.59
80798;BME280;70202;52.238;10.680;2023-06-04T02:41:33;100698.97;;;9.95;52.84
80798;BME280;70202;52.238;10.680;2023-06-04T02:42:33;100697.13;;;9.96;52.59
80798;BME280;70202;52.238;10.680;2023-06-04T02:43:33;100670.34;;;9.82;52.67
80798;BME280;70202;52.238;10.680;2023-06-04T02:44:34;100689.19;;;9.88;51.88
80798;BME280;70202;52.238;10.680;2023-06-04T02:45:34;100667.72;;;9.79;52.50
80798;BME280;70202;52.238;10.680;2023-06-04T02:46:35;100687.47;;;9.86;52.60
80798;BME280;70202;52.238;10.680;2023-06-04T02:47:35;100686.63;;;9.84;52.39
80798;BME280;70202;52.238;10.680;2023-06-04T02:48:35;100688.44;;;9.83;52.48
80798;BME280;70202;52.238;10.680;2023-06-04T02:49:36;100711.84;;;9.89;52.51
80798;BME280;70202;52.238;10.680;2023-06-04T02:50:36;100707.28;;;9.89;52.57
80798;BME280;70202;52.238;10.680;2023-06-04T02:51:36;100684.97;;;9.78;52.73
80798;BME280;70202;52.238;10.680;2023-06-04T02:52:37;100712.84;;;9.86;52.42
80798;BME280;70202;52.238;10.680;2023-06-04T02:53:37;100705.59;;;9.85;53.30
80798;BME280;70202;52.238;10.680;2023-06-04T02:54:38;100717.44;;;9.84;53.10
80798;BME280;70202;52.238;10.680;2023-06-04T02:55:38;100692.41;;;9.71;53.00
80798;BME280;70202;52.238;10.680;2023-06-04T02:56:38;100713.88;;;9.82;52.38
80798;BME280;70202;52.238;10.680;2023-06-04T02:57:41;100703.91;;;9.81;52.77
80798;BME280;70202;52.238;10.680;2023-06-04T02:58:52;100701.44;;;9.73;53.27
80798;BME280;70202;52.238;10.680;2023-06-04T02:59:53;100712.19;;;9.78;52.46
80798;BME280;70202;52.238;10.680;2023-06-04T03:00:55;100702.34;;;9.72;52.83
80798;BME280;70202;52.238;10.680;2023-06-04T03:01:55;100696.16;;;9.67;52.68
80798;BME280;70202;52.238;10.680;2023-06-04T03:02:56;100707.72;;;9.75;52.88
80798;BME280;70202;52.238;10.680;2023-06-04T03:04:01;100710.47;;;9.74;53.06
80798;BME280;70202;52.238;10.680;2023-06-04T03:05:05;100697.09;;;9.66;52.49
80798;BME280;70202;52.238;10.680;2023-06-04T03:06:05;100707.78;;;9.74;53.31
80798;BME280;70202;52.238;10.680;2023-06-04T03:07:06;100689.97;;;9.62;52.92
80798;BME280;70202;52.238;10.680;2023-06-04T03:08:08;100692.56;;;9.67;53.12
80798;BME280;70202;52.238;10.680;2023-06-04T03:09:08;100699.00;;;9.63;53.39
80798;BME280;70202;52.238;10.680;2023-06-04T03:10:09;100694.50;;;9.62;53.22
80798;BME280;70202;52.238;10.680;2023-06-04T03:11:10;100690.84;;;9.64;53.46
80798;BME280;70202;52.238;10.680;2023-06-04T03:12:10;100700.75;;;9.65;53.41
80798;BME280;70202;52.238;10.680;2023-06-04T03:13:11;100699.00;;;9.64;53.45
80798;BME280;70202;52.238;10.680;2023-06-04T03:14:12;100701.53;;;9.70;53.03
80798;BME280;70202;52.238;10.680;2023-06-04T03:15:12;100697.94;;;9.68;53.10
80798;BME280;70202;52.238;10.680;2023-06-04T03:16:12;100703.28;;;9.73;53.64
80798;BME280;70202;52.238;10.680;2023-06-04T03:17:13;100690.84;;;9.63;53.14
80798;BME280;70202;52.238;10.680;2023-06-04T03:18:14;100705.06;;;9.72;53.42
80798;BME280;70202;52.238;10.680;2023-06-04T03:19:14;100704.16;;;9.73;53.50
80798;BME280;70202;52.238;10.680;2023-06-04T03:20:15;100692.50;;;9.68;53.63
80798;BME280;70202;52.238;10.680;2023-06-04T03:21:15;100708.72;;;9.71;53.50
80798;BME280;70202;52.238;10.680;2023-06-04T03:22:15;100695.22;;;9.68;53.11
80798;BME280;70202;52.238;10.680;2023-06-04T03:23:16;100705.75;;;9.81;52.90
80798;BME280;70202;52.238;10.680;2023-06-04T03:24:16;100712.06;;;9.81;53.12
80798;BME280;70202;52.238;10.680;2023-06-04T03:25:17;100705.75;;;9.81;53.16
80798;BME280;70202;52.238;10.680;2023-06-04T03:26:17;100712.03;;;9.83;52.94
80798;BME280;70202;52.238;10.680;2023-06-04T03:27:18;100690.44;;;9.76;53.55
80798;BME280;70202;52.238;10.680;2023-06-04T03:28:18;100709.28;;;9.84;53.16
80798;BME280;70202;52.238;10.680;2023-06-04T03:29:18;100704.72;;;9.85;53.55
80798;BME280;70202;52.238;10.680;2023-06-04T03:30:19;100711.97;;;9.86;53.36
80798;BME280;70202;52.238;10.680;2023-06-04T03:31:19;100699.41;;;9.80;53.04
80798;BME280;70202;52.238;10.680;2023-06-04T03:32:20;100685.13;;;9.73;53.41
80798;BME280;70202;52.238;10.680;2023-06-04T03:33:20;100707.34;;;9.88;53.24
80798;BME280;70202;52.238;10.680;2023-06-04T03:34:20;100707.41;;;9.86;53.40
80798;BME280;70202;52.238;10.680;2023-06-04T03:35:24;100688.66;;;9.75;53.24
80798;BME280;70202;52.238;10.680;2023-06-04T03:36:25;100682.19;;;9.80;53.30
80798;BME280;70202;52.238;10.680;2023-06-04T03:37:31;100709.06;;;9.92;53.49
80798;BME280;70202;52.238;10.680;2023-06-04T03:38:32;100709.88;;;9.94;53.28
80798;BME280;70202;52.238;10.680;2023-06-04T03:39:33;100696.47;;;9.88;53.79
80798;BME280;70202;52.238;10.680;2023-06-04T03:40:33;100703.69;;;9.89;53.47
80798;BME280;70202;52.238;10.680;2023-06-04T03:41:33;100710.75;;;9.96;53.46
80798;BME280;70202;52.238;10.680;2023-06-04T03:42:34;100700.06;;;9.90;53.43
80798;BME280;70202;52.238;10.680;2023-06-04T03:43:35;100708.81;;;9.99;53.79
80798;BME280;70202;52.238;10.680;2023-06-04T03:44:35;100711.50;;;10.01;53.71
80798;BME280;70202;52.238;10.680;2023-06-04T03:45:36;100713.25;;;10.02;53.40
80798;BME280;70202;52.238;10.680;2023-06-04T03:46:36;100711.41;;;10.04;53.42
80798;BME280;70202;52.238;10.680;2023-06-04T03:47:38;100713.19;;;10.05;53.81
80798;BME280;70202;52.238;10.680;2023-06-04T03:48:41;100709.50;;;10.06;53.80
80798;BME280;70202;52.238;10.680;2023-06-04T03:49:42;100691.69;;;9.96;53.72
80798;BME280;70202;52.238;10.680;2023-06-04T03:50:42;100717.53;;;10.11;54.35
80798;BME280;70202;52.238;10.680;2023-06-04T03:51:43;100713.03;;;10.11;53.93
80798;BME280;70202;52.238;10.680;2023-06-04T03:52:44;100713.84;;;10.13;53.82
80798;BME280;70202;52.238;10.680;2023-06-04T03:53:44;100708.59;;;10.07;54.25
80798;BME280;70202;52.238;10.680;2023-06-04T03:54:44;100693.25;;;10.05;53.57
80798;BME280;70202;52.238;10.680;2023-06-04T03:55:45;100718.25;;;10.17;53.51
80798;BME280;70202;52.238;10.680;2023-06-04T03:56:46;100704.59;;;10.19;54.22
80798;BME280;70202;52.238;10.680;2023-06-04T03:57:46;100711.78;;;10.21;53.64
80798;BME280;70202;52.238;10.680;2023-06-04T03:58:47;100705.38;;;10.24;53.31
80798;BME280;70202;52.238;10.680;2023-06-04T03:59:47;100713.50;;;10.25;53.69
80798;BME280;70202;52.238;10.680;2023-06-04T04:00:47;100706.16;;;10.27;53.81
80798;BME280;70202;52.238;10.680;2023-06-04T04:01:48;100713.41;;;10.29;53.96
80798;BME280;70202;52.238;10.680;2023-06-04T04:02:48;100704.38;;;10.26;54.07
80798;BME280;70202;52.238;10.680;2023-06-04T04:03:50;100713.28;;;10.33;54.22
80798;BME280;70202;52.238;10.680;2023-06-04T04:04:51;100692.69;;;10.24;54.19
80798;BME280;70202;52.238;10.680;2023-06-04T04:05:54;100702.53;;;10.29;53.67
80798;BME280;70202;52.238;10.680;2023-06-04T04:06:54;100698.94;;;10.26;53.63
80798;BME280;70202;52.238;10.680;2023-06-04T04:07:55;100692.63;;;10.26;54.16
80798;BME280;70202;52.238;10.680;2023-06-04T04:08:55;100711.16;;;10.43;53.98
80798;BME280;70202;52.238;10.680;2023-06-04T04:09:55;100711.09;;;10.44;54.02
80798;BME280;70202;52.238;10.680;2023-06-04T04:10:56;100703.06;;;10.40;53.29
80798;BME280;70202;52.238;10.680;2023-06-04T04:11:56;100696.81;;;10.36;53.87
80798;BME280;70202;52.238;10.680;2023-06-04T04:12:56;100718.22;;;10.48;53.88
80798;BME280;70202;52.238;10.680;2023-06-04T04:13:58;100715.34;;;10.53;53.99
80798;BME280;70202;52.238;10.680;2023-06-04T04:14:58;100700.25;;;10.43;53.33
80798;BME280;70202;52.238;10.680;2023-06-04T04:15:59;100721.72;;;10.54;53.65
80798;BME280;70202;52.238;10.680;2023-06-04T04:17:00;100718.94;;;10.55;53.34
80798;BME280;70202;52.238;10.680;2023-06-04T04:18:00;100730.72;;;10.56;53.14
80798;BME280;70202;52.238;10.680;2023-06-04T04:19:01;100698.47;;;10.42;53.60
80798;BME280;70202;52.238;10.680;2023-06-04T04:20:01;100727.03;;;10.57;54.45
80798;BME280;70202;52.238;10.680;2023-06-04T04:21:05;100696.56;;;10.44;53.39
80798;BME280;70202;52.238;10.680;2023-06-04T04:22:06;100700.00;;;10.50;53.17
80798;BME280;70202;52.238;10.680;2023-06-04T04:23:06;100712.59;;;10.55;53.27
80798;BME280;70202;52.238;10.680;2023-06-04T04:24:08;100720.47;;;10.64;52.88
80798;BME280;70202;52.238;10.680;2023-06-04T04:25:09;100728.69;;;10.62;53.04
80798;BME280;70202;52.238;10.680;2023-06-04T04:26:10;100730.38;;;10.66;52.83
80798;BME280;70202;52.238;10.680;2023-06-04T04:27:10;100710.66;;;10.58;53.39
80798;BME280;70202;52.238;10.680;2023-06-04T04:28:13;100707.16;;;10.55;53.01
80798;BME280;70202;52.238;10.680;2023-06-04T04:29:14;100730.22;;;10.71;53.09
80798;BME280;70202;52.238;10.680;2023-06-04T04:30:14;100715.84;;;10.66;53.59
80798;BME280;70202;52.238;10.680;2023-06-04T04:31:16;100713.19;;;10.64;53.51
80798;BME280;70202;52.238;10.680;2023-06-04T04:32:17;100720.25;;;10.70;53.10
80798;BME280;70202;52.238;10.680;2023-06-04T04:33:18;100726.41;;;10.76;52.87
80798;BME280;70202;52.238;10.680;2023-06-04T04:34:19;100716.53;;;10.72;53.33
80798;BME280;70202;52.238;10.680;2023-06-04T04:35:21;100711.09;;;10.72;52.77
80798;BME280;70202;52.238;10.680;2023-06-04T04:36:23;100735.31;;;10.82;53.66
80798;BME280;70202;52.238;10.680;2023-06-04T04:37:24;100699.50;;;10.66;53.81
80798;BME280;70202;52.238;10.680;2023-06-04T04:38:24;100717.25;;;10.79;53.25
80798;BME280;70202;52.238;10.680;2023-06-04T04:39:25;100714.56;;;10.77;53.21
80798;BME280;70202;52.238;10.680;2023-06-04T04:40:25;100725.09;;;10.88;53.07
80798;BME280;70202;52.238;10.680;2023-06-04T04:41:26;100740.44;;;10.91;53.31
80798;BME280;70202;52.238;10.680;2023-06-04T04:42:26;100719.75;;;10.85;53.70
80798;BME280;70202;52.238;10.680;2023-06-04T04:43:34;100729.38;;;10.95;53.24
80798;BME280;70202;52.238;10.680;2023-06-04T04:44:35;100710.59;;;10.88;53.33
80798;BME280;70202;52.238;10.680;2023-06-04T04:45:35;100736.53;;;10.99;53.00
80798;BME280;70202;52.238;10.680;2023-06-04T04:46:36;100711.41;;;10.90;53.23
80798;BME280;70202;52.238;10.680;2023-06-04T04:47:37;100732.75;;;11.04;53.17
80798;BME280;70202;52.238;10.680;2023-06-04T04:48:37;100722.91;;;10.99;53.53
80798;BME280;70202;52.238;10.680;2023-06-04T04:49:38;100738.03;;;11.08;53.63
80798;BME280;70202;52.238;10.680;2023-06-04T04:50:39;100725.47;;;11.04;53.38
80798;BME280;70202;52.238;10.680;2023-06-04T04:51:39;100735.13;;;11.14;53.47
80798;BME280;70202;52.238;10.680;2023-06-04T04:52:40;100723.50;;;11.09;53.74
80798;BME280;70202;52.238;10.680;2023-06-04T04:53:40;100735.91;;;11.18;53.70
80798;BME280;70202;52.238;10.680;2023-06-04T04:54:40;100744.81;;;11.23;53.08
80798;BME280;70202;52.238;10.680;2023-06-04T04:55:41;100735.63;;;11.25;53.58
80798;BME280;70202;52.238;10.680;2023-06-04T04:56:41;100744.59;;;11.29;53.75
80798;BME280;70202;52.238;10.680;2023-06-04T04:57:42;100731.09;;;11.26;53.27
80798;BME280;70202;52.238;10.680;2023-06-04T04:58:42;100721.16;;;11.23;53.48
80798;BME280;70202;52.238;10.680;2023-06-04T04:59:42;100737.03;;;11.37;53.63
80798;BME280;70202;52.238;10.680;2023-06-04T05:00:43;100740.56;;;11.41;53.39
80798;BME280;70202;52.238;10.680;2023-06-04T05:01:44;100732.38;;;11.41;53.79
80798;BME280;70202;52.238;10.680;2023-06-04T05:02:44;100721.63;;;11.36;52.92
80798;BME280;70202;52.238;10.680;2023-06-04T05:03:45;100737.50;;;11.50;53.60
80798;BME280;70202;52.238;10.680;2023-06-04T05:04:45;100734.66;;;11.53;53.57
80798;BME280;70202;52.238;10.680;2023-06-04T05:05:45;100710.44;;;11.44;53.67
80798;BME280;70202;52.238;10.680;2023-06-04T05:06:46;100729.16;;;11.55;53.76
80798;BME280;70202;52.238;10.680;2023-06-04T05:07:46;100737.00;;;11.64;53.41
80798;BME280;70202;52.238;10.680;2023-06-04T05:08:47;100728.81;;;11.64;53.37
80798;BME280;70202;52.238;10.680;2023-06-04T05:09:47;100736.09;;;11.63;53.21
80798;BME280;70202;52.238;10.680;2023-06-04T05:10:50;100735.81;;;11.72;53.55
80798;BME280;70202;52.238;10.680;2023-06-04T05:11:50;100740.31;;;11.73;53.32
80798;BME280;70202;52.238;10.680;2023-06-04T05:12:55;100744.56;;;11.81;53.52
80798;BME280;70202;52.238;10.680;2023-06-04T05:13:56;100746.25;;;11.85;53.50
80798;BME280;70202;52.238;10.680;2023-06-04T05:14:56;100724.72;;;11.77;52.90
80798;BME280;70202;52.238;10.680;2023-06-04T05:15:56;100729.97;;;11.83;52.95
80798;BME280;70202;52.238;10.680;2023-06-04T05:16:58;100729.78;;;11.88;53.20
80798;BME280;70202;52.238;10.680;2023-06-04T05:17:58;100735.97;;;11.93;53.18
80798;BME280;70202;52.238;10.680;2023-06-04T05:19:01;100739.25;;;12.03;53.19
80798;BME280;70202;52.238;10.680;2023-06-04T05:20:03;100725.78;;;11.98;53.34
80798;BME280;70202;52.238;10.680;2023-06-04T05:21:06;100742.50;;;12.12;53.22